Terminal Aerodrome Forecast
Issued by NWS Boise, ID

Home | Current Version | Previous Version | Text Only | Print | Product List | Glossary On
Versions: 1 2 3 4 5 6 7 8 9 10 11 12 13 14
000
FTUS45 KBOI 311134
TAFBOI
TAF
KBOI 311134Z 3112/0112 VRB03KT P6SM BKN150
     FM311900 33005KT P6SM BKN120
     FM010600 27010KT P6SM SCT060 BKN100=

USA.gov is the U.S. government's official web portal to all federal, state and local government web resources and services.